createdAt,value
2017-10-16T00:02:27.320Z,7.72
2017-10-16T00:04:54.088Z,8.23
2017-10-16T00:07:20.675Z,8.90
2017-10-16T00:09:47.423Z,7.50
2017-10-16T00:12:14.008Z,7.78
2017-10-16T00:14:41.003Z,9.13
2017-10-16T00:17:07.238Z,9.88
2017-10-16T00:19:33.454Z,9.60
2017-10-16T00:21:59.687Z,8.27
2017-10-16T00:24:26.526Z,9.18
2017-10-16T00:26:54.004Z,8.82
2017-10-16T00:29:21.114Z,8.35
2017-10-16T00:31:49.054Z,7.78
2017-10-16T00:34:15.510Z,8.68
2017-10-16T00:36:42.958Z,8.05
2017-10-16T00:39:09.430Z,8.38
2017-10-16T00:41:36.264Z,7.80
2017-10-16T00:44:03.486Z,6.90
2017-10-16T00:46:29.753Z,10.48
2017-10-16T00:48:56.570Z,8.05
2017-10-16T00:51:22.808Z,10.20
2017-10-16T00:53:49.973Z,8.80
2017-10-16T00:56:17.007Z,10.27
2017-10-16T00:58:43.228Z,9.40
2017-10-16T01:01:10.338Z,8.73
2017-10-16T01:03:37.324Z,9.27
2017-10-16T01:06:04.285Z,9.70
2017-10-16T01:08:31.486Z,10.02
2017-10-16T01:11:05.857Z,9.63
2017-10-16T01:13:32.611Z,8.30
2017-10-16T01:15:59.657Z,7.72
2017-10-16T01:18:26.912Z,7.87
2017-10-16T01:20:54.142Z,7.80
2017-10-16T01:23:20.927Z,10.25
2017-10-16T01:25:48.173Z,10.27
2017-10-16T01:28:14.823Z,9.90
2017-10-16T01:30:42.290Z,10.68
2017-10-16T01:33:08.744Z,7.10
2017-10-16T01:35:36.306Z,8.95
2017-10-16T01:38:03.425Z,9.75
2017-10-16T01:40:29.937Z,8.95
2017-10-16T01:42:57.271Z,8.18
2017-10-16T01:45:24.028Z,8.27
2017-10-16T01:47:51.735Z,9.45
2017-10-16T01:50:18.777Z,8.10
2017-10-16T01:52:45.743Z,8.52
2017-10-16T01:55:11.970Z,7.28
2017-10-16T01:57:39.580Z,9.25
2017-10-16T02:00:06.579Z,6.72
2017-10-16T02:02:33.620Z,7.47
2017-10-16T02:05:02.634Z,7.43
2017-10-16T02:07:30.797Z,6.70
2017-10-16T02:09:57.050Z,7.87
2017-10-16T02:12:23.266Z,7.60
2017-10-16T02:14:49.474Z,8.60
2017-10-16T02:17:16.218Z,17.58
2017-10-16T02:19:42.871Z,9.35
2017-10-16T02:22:09.952Z,8.02
2017-10-16T02:24:36.743Z,7.65
2017-10-16T02:27:02.962Z,7.65
2017-10-16T02:29:30.754Z,7.35
2017-10-16T02:31:57.021Z,8.10
2017-10-16T02:34:24.294Z,7.15
2017-10-16T02:36:51.260Z,8.10
2017-10-16T02:39:18.119Z,9.13
2017-10-16T02:41:46.297Z,6.82
2017-10-16T02:44:13.081Z,5.37
2017-10-16T02:46:39.625Z,6.00
2017-10-16T02:49:07.666Z,7.18
2017-10-16T02:51:34.395Z,6.70
2017-10-16T02:54:01.978Z,6.97
2017-10-16T02:56:28.436Z,7.12
2017-10-16T02:58:55.503Z,10.20
2017-10-16T03:01:21.732Z,7.95
2017-10-16T03:03:48.474Z,7.43
2017-10-16T03:06:14.660Z,7.50
2017-10-16T03:08:42.304Z,6.40
2017-10-16T03:11:09.045Z,6.30
2017-10-16T03:13:35.720Z,6.68
2017-10-16T03:16:02.643Z,6.30
2017-10-16T03:18:28.863Z,6.40
2017-10-16T03:20:55.671Z,6.93
2017-10-16T03:23:22.103Z,6.90
2017-10-16T03:25:48.474Z,6.05
2017-10-16T03:28:14.683Z,6.60
2017-10-16T03:30:41.484Z,8.40
2017-10-16T03:33:07.774Z,7.15
2017-10-16T03:35:34.287Z,8.13
2017-10-16T03:38:01.106Z,7.28
2017-10-16T03:40:29.028Z,7.93
2017-10-16T03:42:55.820Z,7.90
2017-10-16T03:45:22.612Z,7.65
2017-10-16T03:47:49.256Z,6.50
2017-10-16T03:50:16.895Z,5.10
2017-10-16T03:52:43.195Z,6.50
2017-10-16T03:55:09.522Z,6.20
2017-10-16T03:57:37.168Z,6.53
2017-10-16T04:00:04.504Z,6.90
2017-10-16T04:02:31.582Z,6.10
2017-10-16T04:04:57.821Z,6.50
2017-10-16T04:07:25.251Z,6.43
2017-10-16T04:09:52.292Z,5.55
2017-10-16T04:12:19.051Z,7.22
2017-10-16T04:14:46.057Z,6.80
2017-10-16T04:17:14.154Z,7.00
2017-10-16T04:19:40.867Z,7.25
2017-10-16T04:22:08.203Z,7.28
2017-10-16T04:24:35.161Z,8.45
2017-10-16T04:27:02.721Z,9.23
2017-10-16T04:29:29.773Z,7.40
2017-10-16T04:31:56.803Z,7.30
2017-10-16T04:34:23.957Z,5.87
2017-10-16T04:36:50.214Z,7.32
2017-10-16T04:39:17.050Z,7.68
2017-10-16T04:41:43.283Z,7.40
2017-10-16T04:44:09.956Z,7.35
2017-10-16T04:46:36.593Z,6.50
2017-10-16T04:49:02.815Z,7.00
2017-10-16T04:51:29.073Z,6.03
2017-10-16T04:53:55.712Z,8.18
2017-10-16T04:56:22.666Z,7.55
2017-10-16T04:58:49.084Z,8.00
2017-10-16T05:01:16.224Z,7.40
2017-10-16T05:03:42.936Z,8.75
2017-10-16T05:06:10.111Z,7.72
2017-10-16T05:08:36.819Z,8.32
2017-10-16T05:11:03.033Z,8.32
2017-10-16T05:13:29.252Z,8.82
2017-10-16T05:15:56.496Z,6.55
2017-10-16T05:18:23.563Z,8.93
2017-10-16T05:20:50.110Z,10.50
2017-10-16T05:23:16.522Z,10.20
2017-10-16T05:25:43.539Z,10.82
2017-10-16T05:28:10.729Z,9.80
2017-10-16T05:30:37.766Z,10.52
2017-10-16T05:33:04.181Z,10.88
2017-10-16T05:35:31.398Z,10.30
2017-10-16T05:37:58.414Z,10.80
2017-10-16T05:40:25.144Z,11.77
2017-10-16T05:42:51.603Z,12.20
2017-10-16T05:45:18.739Z,14.93
2017-10-16T05:47:44.947Z,13.07
2017-10-16T05:50:11.179Z,13.40
2017-10-16T05:52:37.400Z,12.55
2017-10-16T05:55:04.011Z,15.10
2017-10-16T05:57:31.317Z,14.85
2017-10-16T05:59:59.026Z,14.80
2017-10-16T06:02:26.248Z,15.98
2017-10-16T06:04:53.049Z,15.45
2017-10-16T06:07:20.161Z,13.88
2017-10-16T06:09:46.431Z,14.20
2017-10-16T06:12:13.291Z,13.85
2017-10-16T06:14:39.762Z,14.10
2017-10-16T06:17:07.826Z,12.50
2017-10-16T06:19:34.368Z,12.40
2017-10-16T06:22:01.786Z,15.30
2017-10-16T06:24:29.428Z,11.90
2017-10-16T06:26:56.806Z,12.73
2017-10-16T06:29:24.884Z,12.37
2017-10-16T06:31:53.276Z,9.63
2017-10-16T06:34:20.315Z,9.20
2017-10-16T06:36:46.699Z,9.43
2017-10-16T06:39:15.355Z,10.43
2017-10-16T06:41:41.587Z,10.18
2017-10-16T06:44:08.251Z,10.68
2017-10-16T06:46:35.863Z,8.50
2017-10-16T06:49:02.144Z,9.73
2017-10-16T06:51:29.832Z,10.05
2017-10-16T06:53:56.873Z,15.05
2017-10-16T06:56:23.096Z,11.20
2017-10-16T06:58:49.687Z,11.52
2017-10-16T07:01:16.973Z,11.75
2017-10-16T07:03:43.449Z,13.05
2017-10-16T07:06:17.626Z,12.32
2017-10-16T07:08:46.300Z,13.85
2017-10-16T07:11:12.530Z,17.73
2017-10-16T07:13:39.993Z,12.07
2017-10-16T07:16:07.611Z,13.25
2017-10-16T07:18:34.042Z,12.20
2017-10-16T07:21:01.008Z,11.12
2017-10-16T07:23:28.491Z,11.15
2017-10-16T07:25:54.741Z,10.75
2017-10-16T07:28:21.554Z,11.45
2017-10-16T07:30:48.681Z,12.35
2017-10-16T07:33:16.333Z,9.57
2017-10-16T07:35:42.604Z,10.60
2017-10-16T07:38:08.864Z,10.20
2017-10-16T07:40:35.650Z,10.63
2017-10-16T07:43:03.383Z,10.27
2017-10-16T07:45:30.145Z,10.00
2017-10-16T07:47:57.105Z,9.47
2017-10-16T07:50:23.287Z,9.23
2017-10-16T07:52:50.540Z,9.20
2017-10-16T07:55:17.216Z,8.60
2017-10-16T07:57:43.482Z,8.67
2017-10-16T08:00:09.757Z,7.63
2017-10-16T08:02:36.864Z,7.83
2017-10-16T08:05:04.217Z,7.70
2017-10-16T08:07:31.295Z,8.20
2017-10-16T08:09:57.512Z,8.07
2017-10-16T08:12:23.700Z,8.70
2017-10-16T08:14:50.504Z,8.23
2017-10-16T08:17:17.738Z,9.50
2017-10-16T08:19:44.496Z,8.87
2017-10-16T08:22:11.985Z,7.63
2017-10-16T08:24:38.221Z,7.83
2017-10-16T08:27:04.477Z,8.10
2017-10-16T08:29:31.433Z,8.40
2017-10-16T08:31:58.752Z,8.80
2017-10-16T08:34:24.996Z,9.30
2017-10-16T08:36:51.903Z,8.30
2017-10-16T08:39:18.688Z,9.93
2017-10-16T08:41:46.865Z,9.10
2017-10-16T08:44:13.111Z,8.80
2017-10-16T08:46:39.882Z,9.43
2017-10-16T08:49:07.231Z,9.17
2017-10-16T08:51:35.216Z,9.87
2017-10-16T08:54:01.844Z,10.33
2017-10-16T08:56:28.805Z,10.43
2017-10-16T08:58:55.030Z,10.70
2017-10-16T09:01:21.274Z,10.63
2017-10-16T09:03:47.481Z,10.83
2017-10-16T09:06:14.726Z,11.20
2017-10-16T09:08:41.705Z,11.17
2017-10-16T09:11:08.320Z,10.63
2017-10-16T09:13:34.605Z,11.10
2017-10-16T09:16:01.040Z,11.10
2017-10-16T09:18:28.023Z,10.57
2017-10-16T09:20:55.277Z,10.87
2017-10-16T09:23:21.508Z,10.60
2017-10-16T09:25:48.413Z,9.93
2017-10-16T09:28:15.013Z,9.50
2017-10-16T09:30:42.059Z,9.40
2017-10-16T09:33:08.965Z,9.67
2017-10-16T09:35:36.071Z,10.00
2017-10-16T09:38:03.600Z,8.73
2017-10-16T09:40:30.833Z,8.87
2017-10-16T09:42:58.032Z,9.20
2017-10-16T09:45:24.675Z,10.30
2017-10-16T09:47:52.781Z,10.23
2017-10-16T09:50:19.112Z,9.90
2017-10-16T09:52:46.329Z,9.50
2017-10-16T09:55:12.864Z,9.40
2017-10-16T09:57:39.956Z,10.00
2017-10-16T10:00:06.974Z,10.70
2017-10-16T10:02:34.093Z,10.17
2017-10-16T10:05:00.977Z,10.10
2017-10-16T10:07:28.656Z,9.70
2017-10-16T10:09:55.709Z,10.27
2017-10-16T10:12:22.553Z,10.53
2017-10-16T10:14:49.204Z,10.80
2017-10-16T10:17:16.248Z,9.60
2017-10-16T10:19:42.537Z,11.20
2017-10-16T10:22:10.713Z,10.00
2017-10-16T10:24:37.679Z,9.77
2017-10-16T10:27:04.047Z,10.90
2017-10-16T10:29:31.047Z,8.90
2017-10-16T10:31:58.463Z,8.97
2017-10-16T10:34:25.507Z,10.10
2017-10-16T10:36:51.722Z,9.63
2017-10-16T10:39:18.794Z,8.67
2017-10-16T10:41:45.784Z,9.30
2017-10-16T10:44:12.233Z,9.27
2017-10-16T10:46:39.414Z,7.40
2017-10-16T10:49:06.573Z,7.90
2017-10-16T10:51:33.717Z,8.40
2017-10-16T10:53:59.932Z,7.40
2017-10-16T10:56:27.047Z,8.30
2017-10-16T10:58:53.346Z,8.40
2017-10-16T11:01:19.947Z,7.60
2017-10-16T11:03:46.886Z,7.30
2017-10-16T11:06:14.108Z,8.10
2017-10-16T11:08:40.323Z,7.07
2017-10-16T11:11:06.718Z,7.17
2017-10-16T11:13:33.602Z,7.53
2017-10-16T11:16:00.922Z,9.00
2017-10-16T11:18:27.576Z,6.90
2017-10-16T11:20:54.874Z,6.50
2017-10-16T11:23:22.427Z,7.13
2017-10-16T11:25:48.916Z,8.10
2017-10-16T11:28:16.178Z,7.80
2017-10-16T11:30:43.383Z,6.77
2017-10-16T11:33:09.791Z,7.40
2017-10-16T11:35:36.851Z,6.80
2017-10-16T11:38:03.711Z,6.67
2017-10-16T11:40:30.111Z,7.60
2017-10-16T11:42:56.851Z,7.73
2017-10-16T11:45:23.385Z,7.67
2017-10-16T11:47:50.373Z,6.10
2017-10-16T11:50:16.684Z,7.53
2017-10-16T11:52:42.928Z,6.10
2017-10-16T11:55:09.830Z,7.10
2017-10-16T11:57:36.334Z,6.30
2017-10-16T12:00:03.366Z,7.20
2017-10-16T12:02:30.387Z,6.23
2017-10-16T12:04:56.695Z,6.77
2017-10-16T12:07:23.383Z,6.80
2017-10-16T12:09:49.646Z,6.67
2017-10-16T12:12:17.253Z,6.63
2017-10-16T12:14:43.564Z,5.27
2017-10-16T12:17:09.933Z,6.00
2017-10-16T12:19:36.703Z,4.73
2017-10-16T12:22:02.963Z,6.30
2017-10-16T12:24:30.033Z,5.60
2017-10-16T12:26:56.298Z,6.20
2017-10-16T12:29:23.362Z,5.40
2017-10-16T12:31:49.703Z,5.00
2017-10-16T12:34:16.307Z,5.30
2017-10-16T12:36:43.292Z,4.97
2017-10-16T12:39:09.556Z,5.03
2017-10-16T12:41:35.894Z,5.83
2017-10-16T12:44:02.556Z,5.53
2017-10-16T12:46:29.610Z,5.23
2017-10-16T12:48:56.683Z,5.30
2017-10-16T12:51:23.730Z,5.23
2017-10-16T12:53:50.276Z,4.43
2017-10-16T12:56:17.944Z,5.50
2017-10-16T12:58:45.189Z,4.40
2017-10-16T13:01:11.518Z,5.20
2017-10-16T13:03:38.999Z,5.20
2017-10-16T13:06:06.514Z,4.60
2017-10-16T13:08:32.786Z,4.87
2017-10-16T13:11:00.203Z,5.13
2017-10-16T13:13:26.736Z,4.40
2017-10-16T13:15:54.070Z,4.60
2017-10-16T13:18:20.631Z,4.20
2017-10-16T13:20:47.863Z,5.30
2017-10-16T13:23:14.943Z,5.27
2017-10-16T13:25:41.982Z,4.60
2017-10-16T13:28:08.228Z,4.80
2017-10-16T13:30:34.671Z,4.67
2017-10-16T13:33:01.508Z,4.40
2017-10-16T13:35:27.850Z,4.70
2017-10-16T13:37:55.550Z,4.60
2017-10-16T13:40:22.222Z,4.87
2017-10-16T13:42:49.312Z,4.20
2017-10-16T13:45:16.774Z,4.73
2017-10-16T13:47:44.953Z,4.50
2017-10-16T13:50:12.099Z,4.90
2017-10-16T13:52:39.544Z,4.17
2017-10-16T13:55:06.706Z,4.73
2017-10-16T13:57:34.842Z,4.13
2017-10-16T14:00:01.946Z,5.17
2017-10-16T14:02:28.720Z,3.97
2017-10-16T14:04:56.047Z,4.77
2017-10-16T14:07:24.583Z,4.87
2017-10-16T14:09:51.269Z,4.80
2017-10-16T14:12:18.406Z,4.80
2017-10-16T14:14:44.820Z,4.27
2017-10-16T14:17:11.921Z,4.40
2017-10-16T14:19:39.176Z,4.87
2017-10-16T14:22:06.192Z,4.80
2017-10-16T14:24:33.027Z,4.43
2017-10-16T14:27:00.085Z,4.67
2017-10-16T14:29:27.100Z,5.13
2017-10-16T14:31:54.475Z,4.33
2017-10-16T14:34:22.480Z,5.40
2017-10-16T14:36:48.725Z,4.80
2017-10-16T14:39:14.948Z,4.87
2017-10-16T14:41:41.411Z,5.27
2017-10-16T14:44:08.654Z,5.37
2017-10-16T14:46:36.214Z,4.83
2017-10-16T14:49:02.916Z,5.60
2017-10-16T14:51:29.974Z,4.97
2017-10-16T14:53:57.591Z,5.33
2017-10-16T14:56:25.714Z,5.40
2017-10-16T14:58:51.987Z,5.53
2017-10-16T15:01:22.062Z,5.70
2017-10-16T15:03:48.416Z,5.60
2017-10-16T15:06:15.561Z,5.00
2017-10-16T15:08:41.989Z,5.20
2017-10-16T15:11:08.867Z,5.97
2017-10-16T15:13:35.370Z,6.40
2017-10-16T15:16:03.377Z,6.03
2017-10-16T15:18:30.619Z,5.20
2017-10-16T15:20:57.127Z,5.27
2017-10-16T15:23:24.399Z,5.30
2017-10-16T15:25:52.173Z,5.37
2017-10-16T15:28:19.853Z,4.90
2017-10-16T15:30:47.458Z,5.50
2017-10-16T15:33:14.131Z,6.77
2017-10-16T15:35:40.992Z,8.90
2017-10-16T15:38:07.259Z,15.73
2017-10-16T15:40:33.931Z,61.60
2017-10-16T15:43:01.626Z,53.97
2017-10-16T15:45:27.881Z,53.73
2017-10-16T15:47:54.118Z,52.03
2017-10-16T15:50:20.507Z,36.03
2017-10-16T15:52:47.680Z,18.50
2017-10-16T15:55:14.345Z,14.00
2017-10-16T15:57:41.439Z,18.30
2017-10-16T16:00:08.387Z,19.67
2017-10-16T16:02:34.640Z,18.43
2017-10-16T16:05:01.638Z,19.00
2017-10-16T16:07:28.700Z,21.20
2017-10-16T16:09:55.585Z,14.30
2017-10-16T16:12:21.895Z,13.63
2017-10-16T16:14:48.670Z,9.43
2017-10-16T16:17:14.934Z,8.20
2017-10-16T16:19:41.251Z,7.60
2017-10-16T16:22:07.765Z,7.97
2017-10-16T16:24:34.826Z,7.90
2017-10-16T16:27:02.510Z,7.20
2017-10-16T16:29:29.080Z,8.67
2017-10-16T16:31:56.751Z,8.00
2017-10-16T16:34:23.038Z,9.27
2017-10-16T16:36:49.461Z,8.33
2017-10-16T16:39:17.547Z,8.37
2017-10-16T16:41:44.316Z,8.47
2017-10-16T16:44:11.112Z,8.67
2017-10-16T16:46:38.296Z,12.63
2017-10-16T16:49:05.297Z,28.67
2017-10-16T16:51:31.651Z,23.67
2017-10-16T16:53:58.677Z,18.30
2017-10-16T16:56:25.908Z,20.87
2017-10-16T16:58:53.149Z,16.47
2017-10-16T17:01:19.474Z,20.80
2017-10-16T17:03:46.604Z,18.73
2017-10-16T17:06:13.953Z,24.67
2017-10-16T17:08:41.429Z,28.00
2017-10-16T17:11:07.747Z,24.50
2017-10-16T17:13:34.017Z,25.40
2017-10-16T17:16:00.283Z,18.50
2017-10-16T17:18:26.847Z,15.33
2017-10-16T17:20:54.318Z,14.67
2017-10-16T17:23:21.415Z,13.07
2017-10-16T17:25:47.888Z,11.03
2017-10-16T17:28:15.130Z,13.07
2017-10-16T17:30:42.886Z,9.30
2017-10-16T17:33:09.148Z,10.30
2017-10-16T17:35:36.374Z,9.30
2017-10-16T17:38:03.603Z,9.33
2017-10-16T17:40:29.940Z,10.07
2017-10-16T17:42:56.196Z,11.27
2017-10-16T17:45:22.672Z,10.20
2017-10-16T17:47:50.685Z,13.40
2017-10-16T17:50:17.052Z,13.40
2017-10-16T17:52:43.292Z,12.20
2017-10-16T17:55:10.655Z,12.57
2017-10-16T17:57:37.805Z,11.87
2017-10-16T18:00:04.871Z,11.30
2017-10-16T18:02:31.610Z,13.20
2017-10-16T18:04:58.245Z,13.10
2017-10-16T18:07:26.181Z,13.93
2017-10-16T18:09:53.669Z,16.67
2017-10-16T18:12:20.920Z,13.83
2017-10-16T18:14:48.527Z,15.00
2017-10-16T18:17:15.179Z,15.33
2017-10-16T18:19:43.082Z,15.90
2017-10-16T18:22:09.693Z,12.97
2017-10-16T18:24:38.172Z,15.00
2017-10-16T18:27:04.433Z,14.70
2017-10-16T18:29:31.821Z,16.17
2017-10-16T18:31:58.053Z,15.70
2017-10-16T18:34:24.346Z,13.10
2017-10-16T18:36:50.578Z,13.50
2017-10-16T18:39:17.051Z,14.60
2017-10-16T18:41:44.620Z,14.10
2017-10-16T18:44:10.929Z,14.70
2017-10-16T18:46:37.447Z,15.10
2017-10-16T18:49:03.735Z,13.37
2017-10-16T18:51:31.387Z,13.70
2017-10-16T18:53:59.745Z,11.77
2017-10-16T18:56:25.980Z,14.90
2017-10-16T18:58:52.789Z,15.17
2017-10-16T19:01:19.803Z,14.30
2017-10-16T19:03:46.140Z,13.80
2017-10-16T19:06:12.548Z,15.15
2017-10-16T19:08:39.653Z,15.02
2017-10-16T19:11:06.063Z,15.50
2017-10-16T19:13:32.919Z,18.25
2017-10-16T19:15:59.324Z,21.10
2017-10-16T19:18:25.708Z,25.27
2017-10-16T19:20:51.974Z,21.17
2017-10-16T19:23:19.086Z,17.77
2017-10-16T19:25:45.451Z,15.23
2017-10-16T19:28:12.451Z,12.93
2017-10-16T19:30:40.689Z,13.20
2017-10-16T19:33:07.229Z,12.05
2017-10-16T19:35:35.472Z,11.80
2017-10-16T19:38:02.771Z,14.20
2017-10-16T19:40:29.641Z,17.37
2017-10-16T19:42:57.301Z,17.85
2017-10-16T19:45:24.647Z,14.15
2017-10-16T19:47:51.107Z,13.45
2017-10-16T19:50:17.414Z,18.35
2017-10-16T19:52:43.908Z,16.00
2017-10-16T19:55:11.055Z,17.70
2017-10-16T19:57:37.954Z,16.37
2017-10-16T20:00:05.057Z,15.45
2017-10-16T20:02:32.293Z,14.18
2017-10-16T20:04:59.682Z,14.23
2017-10-16T20:07:26.311Z,13.93
2017-10-16T20:09:52.911Z,13.98
2017-10-16T20:12:20.092Z,17.15
2017-10-16T20:14:47.167Z,14.38
2017-10-16T20:17:13.481Z,16.40
2017-10-16T20:19:40.359Z,16.00
2017-10-16T20:22:06.794Z,14.40
2017-10-16T20:24:33.821Z,15.40
2017-10-16T20:27:00.331Z,12.50
2017-10-16T20:29:26.753Z,11.88
2017-10-16T20:31:54.386Z,11.65
2017-10-16T20:34:21.683Z,11.90
2017-10-16T20:36:48.459Z,12.77
2017-10-16T20:39:14.741Z,13.55
2017-10-16T20:41:41.651Z,12.30
2017-10-16T20:44:09.150Z,11.20
2017-10-16T20:46:35.425Z,13.05
2017-10-16T20:49:01.705Z,11.55
2017-10-16T20:51:27.951Z,11.70
2017-10-16T20:53:54.929Z,13.23
2017-10-16T20:56:21.785Z,14.48
2017-10-16T20:58:48.756Z,12.82
2017-10-16T21:01:15.412Z,11.25
2017-10-16T21:03:42.665Z,11.35
2017-10-16T21:06:10.363Z,10.63
2017-10-16T21:08:36.925Z,10.35
2017-10-16T21:11:04.471Z,10.02
2017-10-16T21:13:32.283Z,10.82
2017-10-16T21:15:58.533Z,10.85
2017-10-16T21:18:26.128Z,8.55
2017-10-16T21:20:53.702Z,10.93
2017-10-16T21:23:19.933Z,8.93
2017-10-16T21:25:46.374Z,9.57
2017-10-16T21:28:14.232Z,10.43
2017-10-16T21:30:41.445Z,8.93
2017-10-16T21:33:07.731Z,10.80
2017-10-16T21:35:33.957Z,10.82
2017-10-16T21:38:00.833Z,10.55
2017-10-16T21:40:27.832Z,10.02
2017-10-16T21:42:55.601Z,12.43
2017-10-16T21:45:22.841Z,12.32
2017-10-16T21:47:50.253Z,9.70
2017-10-16T21:50:17.784Z,10.65
2017-10-16T21:52:45.957Z,8.45
2017-10-16T21:55:13.959Z,9.32
2017-10-16T21:57:41.198Z,12.60
2017-10-16T22:00:07.468Z,17.17
2017-10-16T22:02:34.445Z,16.83
2017-10-16T22:05:00.721Z,12.98
2017-10-16T22:07:27.569Z,10.63
2017-10-16T22:09:55.068Z,11.15
2017-10-16T22:12:21.398Z,11.98
2017-10-16T22:14:48.102Z,13.18
2017-10-16T22:17:14.938Z,13.77
2017-10-16T22:19:41.517Z,9.18
2017-10-16T22:22:07.850Z,10.13
2017-10-16T22:24:34.111Z,12.00
2017-10-16T22:27:01.033Z,11.52
2017-10-16T22:29:28.551Z,10.85
2017-10-16T22:31:55.782Z,9.40
2017-10-16T22:34:22.056Z,8.65
2017-10-16T22:36:48.311Z,9.65
2017-10-16T22:39:15.144Z,8.00
2017-10-16T22:41:42.111Z,8.68
2017-10-16T22:44:08.909Z,9.25
2017-10-16T22:46:35.169Z,10.25
2017-10-16T22:49:01.419Z,10.50
2017-10-16T22:51:28.193Z,8.95
2017-10-16T22:54:04.922Z,9.10
2017-10-16T22:56:31.165Z,10.02
2017-10-16T22:58:57.906Z,10.60
2017-10-16T23:01:24.142Z,8.50
2017-10-16T23:03:50.623Z,10.25
2017-10-16T23:06:17.534Z,10.00
2017-10-16T23:08:44.513Z,9.00
2017-10-16T23:11:10.735Z,9.55
2017-10-16T23:13:37.513Z,8.35
2017-10-16T23:16:04.658Z,7.97
2017-10-16T23:18:31.666Z,9.25
2017-10-16T23:20:57.985Z,7.87
2017-10-16T23:23:25.731Z,8.02
2017-10-16T23:25:52.729Z,7.78
2017-10-16T23:28:18.979Z,7.55
2017-10-16T23:30:45.731Z,8.05
2017-10-16T23:33:12.472Z,7.90
2017-10-16T23:35:39.215Z,8.60
2017-10-16T23:38:06.015Z,7.80
2017-10-16T23:40:32.889Z,7.45
2017-10-16T23:42:59.213Z,8.90
2017-10-16T23:45:26.108Z,9.77
2017-10-16T23:47:52.812Z,7.90
2017-10-16T23:50:20.494Z,7.50
2017-10-16T23:52:48.060Z,8.48
2017-10-16T23:55:14.290Z,7.60
2017-10-16T23:57:41.086Z,8.00
